Yatesville, Pennsylvania
Current Conditions -  °F | °C
As of 7:54 AM on Sunday 23 Nov 2014 (Local Time) from KAVP Reporting Station
Few Clouds Few Clouds  
Wind Chill: 42°   Ceiling: Unl
Heat Index: 42°   Visibility: 10mi
Dew Point: 19°   Wind: 3mph
Humidity: 40%   Direction: 220°SW
Pressure: 30.15"   Gusts: NA
Location:  41.2973°N, 75.7399°W
Report Text: KAVP 231254Z AUTO 22003KT 10SM FEW080 06/M07 A3015 RMK AO2 SLP216 T00561072
Loading
Personal Weather Stations






























Interactive Weather Map New forecast layout! Learn more

10-Day Weather Forecast

Advertisements
Track Severe Weather on mobile